Latheron, United Kingdom
Current Conditions -  °F | °C
As of 2:20 PM on Thursday 27 Nov 2014 (Local Time) from EGPC Reporting Station
Light Rain Light Rain  
Wind Chill:   Ceiling: 1200
Heat Index:   Visibility: 4mi
Dew Point:   Wind: 13mph
Humidity: 93%   Direction: 140°SE
Pressure: 29.68"   Gusts: NA
Location:  58.29°N, 3.35°W
Report Text: EGPC 271420Z 14011KT 6000 -RADZ FEW006 BKN012 08/07 Q1005
Loading
Personal Weather Stations






























Interactive Weather Map New forecast layout! Learn more

10-Day Weather Forecast

Advertisements
Track Severe Weather on mobile